sensor_id;sensor_type;location;lat;lon;timestamp;P1;P2;P0
55485;PMS5003;71262;-25.924;28.194;2024-03-02T00:02:00;15;13;
55485;PMS5003;71262;-25.924;28.194;2024-03-02T00:04:25;17;17;
55485;PMS5003;71262;-25.924;28.194;2024-03-02T00:06:51;21;20;
55485;PMS5003;71262;-25.924;28.194;2024-03-02T00:09:17;16;16;
55485;PMS5003;71262;-25.924;28.194;2024-03-02T00:11:42;17;16;
55485;PMS5003;71262;-25.924;28.194;2024-03-02T00:14:08;16;15;
55485;PMS5003;71262;-25.924;28.194;2024-03-02T00:16:34;18;17;
55485;PMS5003;71262;-25.924;28.194;2024-03-02T00:19:01;17;16;
55485;PMS5003;71262;-25.924;28.194;2024-03-02T00:21:26;17;14;
55485;PMS5003;71262;-25.924;28.194;2024-03-02T00:23:51;18;17;
55485;PMS5003;71262;-25.924;28.194;2024-03-02T00:26:17;16;16;
55485;PMS5003;71262;-25.924;28.194;2024-03-02T00:28:42;18;16;
55485;PMS5003;71262;-25.924;28.194;2024-03-02T00:31:08;19;19;
55485;PMS5003;71262;-25.924;28.194;2024-03-02T00:33:33;14;12;
55485;PMS5003;71262;-25.924;28.194;2024-03-02T00:35:58;19;17;
55485;PMS5003;71262;-25.924;28.194;2024-03-02T00:38:24;18;16;
55485;PMS5003;71262;-25.924;28.194;2024-03-02T00:40:49;21;16;
55485;PMS5003;71262;-25.924;28.194;2024-03-02T00:45:41;17;14;
55485;PMS5003;71262;-25.924;28.194;2024-03-02T00:48:06;21;18;
55485;PMS5003;71262;-25.924;28.194;2024-03-02T00:50:31;17;15;
55485;PMS5003;71262;-25.924;28.194;2024-03-02T00:52:57;18;16;
55485;PMS5003;71262;-25.924;28.194;2024-03-02T00:55:22;18;17;
55485;PMS5003;71262;-25.924;28.194;2024-03-02T00:57:48;18;16;
55485;PMS5003;71262;-25.924;28.194;2024-03-02T01:00:14;17;16;
55485;PMS5003;71262;-25.924;28.194;2024-03-02T01:02:39;17;15;
55485;PMS5003;71262;-25.924;28.194;2024-03-02T01:05:05;18;15;
55485;PMS5003;71262;-25.924;28.194;2024-03-02T01:07:30;17;15;
55485;PMS5003;71262;-25.924;28.194;2024-03-02T01:09:55;14;14;
55485;PMS5003;71262;-25.924;28.194;2024-03-02T01:12:21;21;17;
55485;PMS5003;71262;-25.924;28.194;2024-03-02T01:14:46;16;14;
55485;PMS5003;71262;-25.924;28.194;2024-03-02T01:17:12;16;15;
55485;PMS5003;71262;-25.924;28.194;2024-03-02T01:19:38;18;16;
55485;PMS5003;71262;-25.924;28.194;2024-03-02T01:22:04;14;13;
55485;PMS5003;71262;-25.924;28.194;2024-03-02T01:24:29;16;14;
55485;PMS5003;71262;-25.924;28.194;2024-03-02T01:26:55;16;15;
55485;PMS5003;71262;-25.924;28.194;2024-03-02T01:29:21;18;17;
55485;PMS5003;71262;-25.924;28.194;2024-03-02T01:31:47;16;15;
55485;PMS5003;71262;-25.924;28.194;2024-03-02T01:34:12;18;15;
55485;PMS5003;71262;-25.924;28.194;2024-03-02T01:36:38;17;14;
55485;PMS5003;71262;-25.924;28.194;2024-03-02T01:39:03;12;11;
55485;PMS5003;71262;-25.924;28.194;2024-03-02T01:41:29;15;13;
55485;PMS5003;71262;-25.924;28.194;2024-03-02T01:43:54;15;13;
55485;PMS5003;71262;-25.924;28.194;2024-03-02T01:46:20;17;16;
55485;PMS5003;71262;-25.924;28.194;2024-03-02T01:48:46;17;16;
55485;PMS5003;71262;-25.924;28.194;2024-03-02T01:51:11;19;14;
55485;PMS5003;71262;-25.924;28.194;2024-03-02T01:53:37;14;14;
55485;PMS5003;71262;-25.924;28.194;2024-03-02T01:56:03;13;13;
55485;PMS5003;71262;-25.924;28.194;2024-03-02T01:58:28;15;14;
55485;PMS5003;71262;-25.924;28.194;2024-03-02T02:00:54;15;15;
55485;PMS5003;71262;-25.924;28.194;2024-03-02T02:03:20;13;13;
55485;PMS5003;71262;-25.924;28.194;2024-03-02T02:05:45;14;13;
55485;PMS5003;71262;-25.924;28.194;2024-03-02T02:08:11;13;12;
55485;PMS5003;71262;-25.924;28.194;2024-03-02T02:10:37;16;14;
55485;PMS5003;71262;-25.924;28.194;2024-03-02T02:13:02;16;16;
55485;PMS5003;71262;-25.924;28.194;2024-03-02T02:15:28;16;13;
55485;PMS5003;71262;-25.924;28.194;2024-03-02T02:17:54;17;14;
55485;PMS5003;71262;-25.924;28.194;2024-03-02T02:20:19;16;13;
55485;PMS5003;71262;-25.924;28.194;2024-03-02T02:25:11;13;12;
55485;PMS5003;71262;-25.924;28.194;2024-03-02T02:27:37;20;17;
55485;PMS5003;71262;-25.924;28.194;2024-03-02T02:30:03;15;13;
55485;PMS5003;71262;-25.924;28.194;2024-03-02T02:32:28;19;14;
55485;PMS5003;71262;-25.924;28.194;2024-03-02T02:34:54;16;15;
55485;PMS5003;71262;-25.924;28.194;2024-03-02T02:37:19;17;13;
55485;PMS5003;71262;-25.924;28.194;2024-03-02T02:39:44;18;14;
55485;PMS5003;71262;-25.924;28.194;2024-03-02T02:42:09;20;16;
55485;PMS5003;71262;-25.924;28.194;2024-03-02T02:44:35;17;15;
55485;PMS5003;71262;-25.924;28.194;2024-03-02T02:47:01;13;13;
55485;PMS5003;71262;-25.924;28.194;2024-03-02T02:49:27;17;17;
55485;PMS5003;71262;-25.924;28.194;2024-03-02T02:51:53;13;12;
55485;PMS5003;71262;-25.924;28.194;2024-03-02T02:54:18;17;15;
55485;PMS5003;71262;-25.924;28.194;2024-03-02T02:56:44;17;13;
55485;PMS5003;71262;-25.924;28.194;2024-03-02T02:59:10;12;12;
55485;PMS5003;71262;-25.924;28.194;2024-03-02T03:01:35;13;12;
55485;PMS5003;71262;-25.924;28.194;2024-03-02T03:04:01;14;12;
55485;PMS5003;71262;-25.924;28.194;2024-03-02T03:06:26;16;14;
55485;PMS5003;71262;-25.924;28.194;2024-03-02T03:08:51;16;15;
55485;PMS5003;71262;-25.924;28.194;2024-03-02T03:11:17;14;13;
55485;PMS5003;71262;-25.924;28.194;2024-03-02T03:13:42;16;14;
55485;PMS5003;71262;-25.924;28.194;2024-03-02T03:16:08;19;13;
55485;PMS5003;71262;-25.924;28.194;2024-03-02T03:18:33;9;9;
55485;PMS5003;71262;-25.924;28.194;2024-03-02T03:20:59;14;14;
55485;PMS5003;71262;-25.924;28.194;2024-03-02T03:23:25;15;12;
55485;PMS5003;71262;-25.924;28.194;2024-03-02T03:25:51;13;13;
55485;PMS5003;71262;-25.924;28.194;2024-03-02T03:28:16;12;12;
55485;PMS5003;71262;-25.924;28.194;2024-03-02T03:30:42;13;13;
55485;PMS5003;71262;-25.924;28.194;2024-03-02T03:33:08;12;12;
55485;PMS5003;71262;-25.924;28.194;2024-03-02T03:35:34;13;13;
55485;PMS5003;71262;-25.924;28.194;2024-03-02T03:38:00;13;12;
55485;PMS5003;71262;-25.924;28.194;2024-03-02T03:40:25;13;12;
55485;PMS5003;71262;-25.924;28.194;2024-03-02T03:42:51;12;12;
55485;PMS5003;71262;-25.924;28.194;2024-03-02T03:45:17;11;11;
55485;PMS5003;71262;-25.924;28.194;2024-03-02T03:47:42;14;12;
55485;PMS5003;71262;-25.924;28.194;2024-03-02T03:50:09;11;11;
55485;PMS5003;71262;-25.924;28.194;2024-03-02T03:52:34;17;13;
55485;PMS5003;71262;-25.924;28.194;2024-03-02T03:54:59;12;9;
55485;PMS5003;71262;-25.924;28.194;2024-03-02T03:57:25;16;14;
55485;PMS5003;71262;-25.924;28.194;2024-03-02T03:59:51;12;10;
55485;PMS5003;71262;-25.924;28.194;2024-03-02T04:02:17;15;10;
55485;PMS5003;71262;-25.924;28.194;2024-03-02T04:04:43;13;10;
55485;PMS5003;71262;-25.924;28.194;2024-03-02T04:07:08;13;12;
55485;PMS5003;71262;-25.924;28.194;2024-03-02T04:09:34;12;11;
55485;PMS5003;71262;-25.924;28.194;2024-03-02T04:12:00;12;11;
55485;PMS5003;71262;-25.924;28.194;2024-03-02T04:14:25;13;11;
55485;PMS5003;71262;-25.924;28.194;2024-03-02T04:16:51;13;12;
55485;PMS5003;71262;-25.924;28.194;2024-03-02T04:19:16;16;14;
55485;PMS5003;71262;-25.924;28.194;2024-03-02T04:21:42;10;10;
55485;PMS5003;71262;-25.924;28.194;2024-03-02T04:24:08;11;11;
55485;PMS5003;71262;-25.924;28.194;2024-03-02T04:26:34;13;12;
55485;PMS5003;71262;-25.924;28.194;2024-03-02T04:29:00;11;11;
55485;PMS5003;71262;-25.924;28.194;2024-03-02T04:31:25;16;12;
55485;PMS5003;71262;-25.924;28.194;2024-03-02T04:33:50;12;12;
55485;PMS5003;71262;-25.924;28.194;2024-03-02T04:36:16;10;8;
55485;PMS5003;71262;-25.924;28.194;2024-03-02T04:38:41;12;12;
55485;PMS5003;71262;-25.924;28.194;2024-03-02T04:41:07;14;14;
55485;PMS5003;71262;-25.924;28.194;2024-03-02T04:43:33;11;11;
55485;PMS5003;71262;-25.924;28.194;2024-03-02T04:45:58;13;11;
55485;PMS5003;71262;-25.924;28.194;2024-03-02T04:48:24;12;11;
55485;PMS5003;71262;-25.924;28.194;2024-03-02T04:50:49;13;10;
55485;PMS5003;71262;-25.924;28.194;2024-03-02T04:53:15;10;8;
55485;PMS5003;71262;-25.924;28.194;2024-03-02T04:55:41;10;10;
55485;PMS5003;71262;-25.924;28.194;2024-03-02T04:58:07;9;9;
55485;PMS5003;71262;-25.924;28.194;2024-03-02T05:00:32;13;11;
55485;PMS5003;71262;-25.924;28.194;2024-03-02T05:02:58;12;11;
55485;PMS5003;71262;-25.924;28.194;2024-03-02T05:05:24;16;13;
55485;PMS5003;71262;-25.924;28.194;2024-03-02T05:07:49;11;10;
55485;PMS5003;71262;-25.924;28.194;2024-03-02T05:10:15;10;9;
55485;PMS5003;71262;-25.924;28.194;2024-03-02T05:12:41;12;11;
55485;PMS5003;71262;-25.924;28.194;2024-03-02T05:15:07;11;9;
55485;PMS5003;71262;-25.924;28.194;2024-03-02T05:17:33;12;11;
55485;PMS5003;71262;-25.924;28.194;2024-03-02T05:19:58;10;9;
55485;PMS5003;71262;-25.924;28.194;2024-03-02T05:22:24;11;10;
55485;PMS5003;71262;-25.924;28.194;2024-03-02T05:24:50;13;12;
55485;PMS5003;71262;-25.924;28.194;2024-03-02T05:27:16;10;9;
55485;PMS5003;71262;-25.924;28.194;2024-03-02T05:29:41;12;11;
55485;PMS5003;71262;-25.924;28.194;2024-03-02T05:32:07;10;9;
55485;PMS5003;71262;-25.924;28.194;2024-03-02T05:34:33;10;9;
55485;PMS5003;71262;-25.924;28.194;2024-03-02T05:36:59;12;11;
55485;PMS5003;71262;-25.924;28.194;2024-03-02T05:39:24;10;9;
55485;PMS5003;71262;-25.924;28.194;2024-03-02T05:41:50;10;9;
55485;PMS5003;71262;-25.924;28.194;2024-03-02T05:44:16;11;10;
55485;PMS5003;71262;-25.924;28.194;2024-03-02T05:46:41;10;10;
55485;PMS5003;71262;-25.924;28.194;2024-03-02T05:49:07;10;9;
55485;PMS5003;71262;-25.924;28.194;2024-03-02T05:51:33;7;7;
55485;PMS5003;71262;-25.924;28.194;2024-03-02T05:53:59;9;9;
55485;PMS5003;71262;-25.924;28.194;2024-03-02T05:56:24;8;7;
55485;PMS5003;71262;-25.924;28.194;2024-03-02T05:58:50;10;9;
55485;PMS5003;71262;-25.924;28.194;2024-03-02T06:01:16;8;8;
55485;PMS5003;71262;-25.924;28.194;2024-03-02T06:03:41;11;9;
55485;PMS5003;71262;-25.924;28.194;2024-03-02T06:06:07;9;8;
55485;PMS5003;71262;-25.924;28.194;2024-03-02T06:08:33;8;8;
55485;PMS5003;71262;-25.924;28.194;2024-03-02T06:10:58;10;9;
55485;PMS5003;71262;-25.924;28.194;2024-03-02T06:13:24;8;8;
55485;PMS5003;71262;-25.924;28.194;2024-03-02T06:15:50;12;10;
55485;PMS5003;71262;-25.924;28.194;2024-03-02T06:18:15;11;10;
55485;PMS5003;71262;-25.924;28.194;2024-03-02T06:20:41;10;9;
55485;PMS5003;71262;-25.924;28.194;2024-03-02T06:23:07;13;10;
55485;PMS5003;71262;-25.924;28.194;2024-03-02T06:25:32;9;9;
55485;PMS5003;71262;-25.924;28.194;2024-03-02T06:27:58;9;9;
55485;PMS5003;71262;-25.924;28.194;2024-03-02T06:30:24;7;7;
55485;PMS5003;71262;-25.924;28.194;2024-03-02T06:32:50;9;8;
55485;PMS5003;71262;-25.924;28.194;2024-03-02T06:35:15;9;8;
55485;PMS5003;71262;-25.924;28.194;2024-03-02T06:37:41;9;8;
55485;PMS5003;71262;-25.924;28.194;2024-03-02T06:40:07;11;9;
55485;PMS5003;71262;-25.924;28.194;2024-03-02T06:42:32;9;8;
55485;PMS5003;71262;-25.924;28.194;2024-03-02T06:44:58;8;6;
55485;PMS5003;71262;-25.924;28.194;2024-03-02T06:47:24;9;8;
55485;PMS5003;71262;-25.924;28.194;2024-03-02T06:49:49;9;9;
55485;PMS5003;71262;-25.924;28.194;2024-03-02T06:52:15;10;8;
55485;PMS5003;71262;-25.924;28.194;2024-03-02T06:54:41;10;9;
55485;PMS5003;71262;-25.924;28.194;2024-03-02T06:57:06;8;8;
55485;PMS5003;71262;-25.924;28.194;2024-03-02T06:59:32;8;7;
55485;PMS5003;71262;-25.924;28.194;2024-03-02T07:01:58;9;7;
55485;PMS5003;71262;-25.924;28.194;2024-03-02T07:04:23;9;7;
55485;PMS5003;71262;-25.924;28.194;2024-03-02T07:06:49;8;7;
55485;PMS5003;71262;-25.924;28.194;2024-03-02T07:09:15;8;7;
55485;PMS5003;71262;-25.924;28.194;2024-03-02T07:11:40;8;8;
55485;PMS5003;71262;-25.924;28.194;2024-03-02T07:14:06;7;7;
55485;PMS5003;71262;-25.924;28.194;2024-03-02T07:16:32;7;7;
55485;PMS5003;71262;-25.924;28.194;2024-03-02T07:18:58;9;7;
55485;PMS5003;71262;-25.924;28.194;2024-03-02T07:21:23;7;7;
55485;PMS5003;71262;-25.924;28.194;2024-03-02T07:23:49;8;7;
55485;PMS5003;71262;-25.924;28.194;2024-03-02T07:26:15;5;5;
55485;PMS5003;71262;-25.924;28.194;2024-03-02T07:28:40;7;7;
55485;PMS5003;71262;-25.924;28.194;2024-03-02T07:31:06;6;6;
55485;PMS5003;71262;-25.924;28.194;2024-03-02T07:33:32;10;8;
55485;PMS5003;71262;-25.924;28.194;2024-03-02T07:35:59;9;8;
55485;PMS5003;71262;-25.924;28.194;2024-03-02T07:38:23;8;6;
55485;PMS5003;71262;-25.924;28.194;2024-03-02T07:40:49;8;7;
55485;PMS5003;71262;-25.924;28.194;2024-03-02T07:43:15;7;6;
55485;PMS5003;71262;-25.924;28.194;2024-03-02T07:45:40;8;7;
55485;PMS5003;71262;-25.924;28.194;2024-03-02T07:48:06;6;5;
55485;PMS5003;71262;-25.924;28.194;2024-03-02T07:50:32;8;7;
55485;PMS5003;71262;-25.924;28.194;2024-03-02T07:52:57;6;6;
55485;PMS5003;71262;-25.924;28.194;2024-03-02T07:55:23;7;7;
55485;PMS5003;71262;-25.924;28.194;2024-03-02T07:57:49;7;7;
55485;PMS5003;71262;-25.924;28.194;2024-03-02T08:00:15;7;7;
55485;PMS5003;71262;-25.924;28.194;2024-03-02T08:02:40;8;7;
55485;PMS5003;71262;-25.924;28.194;2024-03-02T08:05:06;9;8;
55485;PMS5003;71262;-25.924;28.194;2024-03-02T08:07:32;9;7;
55485;PMS5003;71262;-25.924;28.194;2024-03-02T08:09:57;8;7;
55485;PMS5003;71262;-25.924;28.194;2024-03-02T08:12:23;5;5;
55485;PMS5003;71262;-25.924;28.194;2024-03-02T08:14:49;5;5;
55485;PMS5003;71262;-25.924;28.194;2024-03-02T08:17:14;10;9;
55485;PMS5003;71262;-25.924;28.194;2024-03-02T08:19:40;9;8;
55485;PMS5003;71262;-25.924;28.194;2024-03-02T08:22:10;8;6;
55485;PMS5003;71262;-25.924;28.194;2024-03-02T08:24:31;8;8;
55485;PMS5003;71262;-25.924;28.194;2024-03-02T08:26:57;8;7;
55485;PMS5003;71262;-25.924;28.194;2024-03-02T08:29:23;5;5;
55485;PMS5003;71262;-25.924;28.194;2024-03-02T08:31:48;7;6;
55485;PMS5003;71262;-25.924;28.194;2024-03-02T08:34:14;7;6;
55485;PMS5003;71262;-25.924;28.194;2024-03-02T08:36:40;7;7;
55485;PMS5003;71262;-25.924;28.194;2024-03-02T08:39:05;7;7;
55485;PMS5003;71262;-25.924;28.194;2024-03-02T08:41:31;8;7;
55485;PMS5003;71262;-25.924;28.194;2024-03-02T08:43:57;7;5;
55485;PMS5003;71262;-25.924;28.194;2024-03-02T08:46:22;8;7;
55485;PMS5003;71262;-25.924;28.194;2024-03-02T08:48:48;8;7;
55485;PMS5003;71262;-25.924;28.194;2024-03-02T08:51:14;6;6;
55485;PMS5003;71262;-25.924;28.194;2024-03-02T08:53:40;6;4;
55485;PMS5003;71262;-25.924;28.194;2024-03-02T08:56:05;7;7;
55485;PMS5003;71262;-25.924;28.194;2024-03-02T08:58:31;8;8;
55485;PMS5003;71262;-25.924;28.194;2024-03-02T09:00:57;8;7;
55485;PMS5003;71262;-25.924;28.194;2024-03-02T09:03:22;9;8;
55485;PMS5003;71262;-25.924;28.194;2024-03-02T09:05:47;11;7;
55485;PMS5003;71262;-25.924;28.194;2024-03-02T09:08:13;8;7;
55485;PMS5003;71262;-25.924;28.194;2024-03-02T09:10:39;6;6;
55485;PMS5003;71262;-25.924;28.194;2024-03-02T09:13:05;7;7;
55485;PMS5003;71262;-25.924;28.194;2024-03-02T09:15:30;8;7;
55485;PMS5003;71262;-25.924;28.194;2024-03-02T09:17:56;5;5;
55485;PMS5003;71262;-25.924;28.194;2024-03-02T09:20:22;7;7;
55485;PMS5003;71262;-25.924;28.194;2024-03-02T09:22:47;7;7;
55485;PMS5003;71262;-25.924;28.194;2024-03-02T09:25:14;7;5;
55485;PMS5003;71262;-25.924;28.194;2024-03-02T09:27:39;9;8;
55485;PMS5003;71262;-25.924;28.194;2024-03-02T09:30:06;6;6;
55485;PMS5003;71262;-25.924;28.194;2024-03-02T09:32:30;5;5;
55485;PMS5003;71262;-25.924;28.194;2024-03-02T09:34:56;6;6;
55485;PMS5003;71262;-25.924;28.194;2024-03-02T09:37:21;6;4;
55485;PMS5003;71262;-25.924;28.194;2024-03-02T09:39:47;4;4;
55485;PMS5003;71262;-25.924;28.194;2024-03-02T09:42:13;6;6;
55485;PMS5003;71262;-25.924;28.194;2024-03-02T09:44:39;9;8;
55485;PMS5003;71262;-25.924;28.194;2024-03-02T09:47:04;6;6;
55485;PMS5003;71262;-25.924;28.194;2024-03-02T09:49:30;6;6;
55485;PMS5003;71262;-25.924;28.194;2024-03-02T09:51:56;7;5;
55485;PMS5003;71262;-25.924;28.194;2024-03-02T09:54:21;7;7;
55485;PMS5003;71262;-25.924;28.194;2024-03-02T09:56:47;10;7;
55485;PMS5003;71262;-25.924;28.194;2024-03-02T09:59:13;7;6;
55485;PMS5003;71262;-25.924;28.194;2024-03-02T10:01:39;7;7;
55485;PMS5003;71262;-25.924;28.194;2024-03-02T10:04:04;9;8;
55485;PMS5003;71262;-25.924;28.194;2024-03-02T10:06:30;7;7;
55485;PMS5003;71262;-25.924;28.194;2024-03-02T10:08:56;7;6;
55485;PMS5003;71262;-25.924;28.194;2024-03-02T10:11:26;7;6;
55485;PMS5003;71262;-25.924;28.194;2024-03-02T10:13:47;6;6;
55485;PMS5003;71262;-25.924;28.194;2024-03-02T10:16:13;6;6;
55485;PMS5003;71262;-25.924;28.194;2024-03-02T10:18:38;8;8;
55485;PMS5003;71262;-25.924;28.194;2024-03-02T10:23:30;6;6;
55485;PMS5003;71262;-25.924;28.194;2024-03-02T10:25:55;9;8;
55485;PMS5003;71262;-25.924;28.194;2024-03-02T10:28:21;8;7;
55485;PMS5003;71262;-25.924;28.194;2024-03-02T10:30:48;7;7;
55485;PMS5003;71262;-25.924;28.194;2024-03-02T10:33:12;6;6;
55485;PMS5003;71262;-25.924;28.194;2024-03-02T10:35:38;8;8;
55485;PMS5003;71262;-25.924;28.194;2024-03-02T10:38:04;7;7;
55485;PMS5003;71262;-25.924;28.194;2024-03-02T10:40:30;9;8;
55485;PMS5003;71262;-25.924;28.194;2024-03-02T10:42:55;6;5;
55485;PMS5003;71262;-25.924;28.194;2024-03-02T10:45:21;7;7;
55485;PMS5003;71262;-25.924;28.194;2024-03-02T10:47:47;7;7;
55485;PMS5003;71262;-25.924;28.194;2024-03-02T10:50:12;7;7;
55485;PMS5003;71262;-25.924;28.194;2024-03-02T10:52:38;6;6;
55485;PMS5003;71262;-25.924;28.194;2024-03-02T10:55:04;7;7;
55485;PMS5003;71262;-25.924;28.194;2024-03-02T10:57:29;8;8;
55485;PMS5003;71262;-25.924;28.194;2024-03-02T10:59:56;5;5;
55485;PMS5003;71262;-25.924;28.194;2024-03-02T11:02:21;7;7;
55485;PMS5003;71262;-25.924;28.194;2024-03-02T11:04:46;8;8;
55485;PMS5003;71262;-25.924;28.194;2024-03-02T11:07:12;9;8;
55485;PMS5003;71262;-25.924;28.194;2024-03-02T11:09:40;7;6;
55485;PMS5003;71262;-25.924;28.194;2024-03-02T11:12:06;8;7;
55485;PMS5003;71262;-25.924;28.194;2024-03-02T11:14:30;8;6;
55485;PMS5003;71262;-25.924;28.194;2024-03-02T11:16:55;8;7;
55485;PMS5003;71262;-25.924;28.194;2024-03-02T11:19:21;8;8;
55485;PMS5003;71262;-25.924;28.194;2024-03-02T11:21:46;8;8;
55485;PMS5003;71262;-25.924;28.194;2024-03-02T11:26:38;8;7;
55485;PMS5003;71262;-25.924;28.194;2024-03-02T11:29:04;7;7;
55485;PMS5003;71262;-25.924;28.194;2024-03-02T11:33:55;8;7;
55485;PMS5003;71262;-25.924;28.194;2024-03-02T11:36:21;8;7;
55485;PMS5003;71262;-25.924;28.194;2024-03-02T11:38:47;7;7;
55485;PMS5003;71262;-25.924;28.194;2024-03-02T11:41:12;6;6;
55485;PMS5003;71262;-25.924;28.194;2024-03-02T11:43:38;8;6;
55485;PMS5003;71262;-25.924;28.194;2024-03-02T11:46:04;11;7;
55485;PMS5003;71262;-25.924;28.194;2024-03-02T11:48:30;8;7;
55485;PMS5003;71262;-25.924;28.194;2024-03-02T11:50:57;8;7;
55485;PMS5003;71262;-25.924;28.194;2024-03-02T11:53:22;10;9;
55485;PMS5003;71262;-25.924;28.194;2024-03-02T11:55:47;7;6;
55485;PMS5003;71262;-25.924;28.194;2024-03-02T11:58:12;7;7;
55485;PMS5003;71262;-25.924;28.194;2024-03-02T12:00:38;7;7;
55485;PMS5003;71262;-25.924;28.194;2024-03-02T12:03:05;7;7;
55485;PMS5003;71262;-25.924;28.194;2024-03-02T12:05:30;8;8;
55485;PMS5003;71262;-25.924;28.194;2024-03-02T12:07:56;9;8;
55485;PMS5003;71262;-25.924;28.194;2024-03-02T12:10:21;7;7;
55485;PMS5003;71262;-25.924;28.194;2024-03-02T12:12:47;7;7;
55485;PMS5003;71262;-25.924;28.194;2024-03-02T12:15:12;7;7;
55485;PMS5003;71262;-25.924;28.194;2024-03-02T12:17:39;10;9;
55485;PMS5003;71262;-25.924;28.194;2024-03-02T12:20:04;7;7;
55485;PMS5003;71262;-25.924;28.194;2024-03-02T12:22:29;9;7;
55485;PMS5003;71262;-25.924;28.194;2024-03-02T12:24:55;10;9;
55485;PMS5003;71262;-25.924;28.194;2024-03-02T12:27:21;8;7;
55485;PMS5003;71262;-25.924;28.194;2024-03-02T12:29:46;7;7;
55485;PMS5003;71262;-25.924;28.194;2024-03-02T12:32:12;10;9;
55485;PMS5003;71262;-25.924;28.194;2024-03-02T12:34:38;7;7;
55485;PMS5003;71262;-25.924;28.194;2024-03-02T12:37:04;9;8;
55485;PMS5003;71262;-25.924;28.194;2024-03-02T12:39:29;8;7;
55485;PMS5003;71262;-25.924;28.194;2024-03-02T12:41:55;12;10;
55485;PMS5003;71262;-25.924;28.194;2024-03-02T12:44:20;7;7;
55485;PMS5003;71262;-25.924;28.194;2024-03-02T12:46:47;6;6;
55485;PMS5003;71262;-25.924;28.194;2024-03-02T12:49:13;9;8;
55485;PMS5003;71262;-25.924;28.194;2024-03-02T12:51:38;12;10;
55485;PMS5003;71262;-25.924;28.194;2024-03-02T12:54:03;8;7;
55485;PMS5003;71262;-25.924;28.194;2024-03-02T12:56:31;13;8;
55485;PMS5003;71262;-25.924;28.194;2024-03-02T12:58:55;8;8;
55485;PMS5003;71262;-25.924;28.194;2024-03-02T13:01:20;8;8;
55485;PMS5003;71262;-25.924;28.194;2024-03-02T13:03:48;7;7;
55485;PMS5003;71262;-25.924;28.194;2024-03-02T13:06:12;11;10;
55485;PMS5003;71262;-25.924;28.194;2024-03-02T13:08:37;8;8;
55485;PMS5003;71262;-25.924;28.194;2024-03-02T13:11:03;8;7;
55485;PMS5003;71262;-25.924;28.194;2024-03-02T13:13:30;9;7;
55485;PMS5003;71262;-25.924;28.194;2024-03-02T13:15:55;9;8;
55485;PMS5003;71262;-25.924;28.194;2024-03-02T13:18:21;9;9;
55485;PMS5003;71262;-25.924;28.194;2024-03-02T13:20:46;9;8;
55485;PMS5003;71262;-25.924;28.194;2024-03-02T13:23:12;9;9;
55485;PMS5003;71262;-25.924;28.194;2024-03-02T13:25:38;7;7;
55485;PMS5003;71262;-25.924;28.194;2024-03-02T13:28:04;7;7;
55485;PMS5003;71262;-25.924;28.194;2024-03-02T13:30:29;9;8;
55485;PMS5003;71262;-25.924;28.194;2024-03-02T13:32:55;11;9;
55485;PMS5003;71262;-25.924;28.194;2024-03-02T13:35:20;9;9;
55485;PMS5003;71262;-25.924;28.194;2024-03-02T13:37:46;9;9;
55485;PMS5003;71262;-25.924;28.194;2024-03-02T13:40:12;8;8;
55485;PMS5003;71262;-25.924;28.194;2024-03-02T13:42:37;10;8;
55485;PMS5003;71262;-25.924;28.194;2024-03-02T13:45:04;12;9;
55485;PMS5003;71262;-25.924;28.194;2024-03-02T13:47:29;9;9;
55485;PMS5003;71262;-25.924;28.194;2024-03-02T13:49:54;7;7;
55485;PMS5003;71262;-25.924;28.194;2024-03-02T13:52:20;9;7;
55485;PMS5003;71262;-25.924;28.194;2024-03-02T13:54:46;10;9;
55485;PMS5003;71262;-25.924;28.194;2024-03-02T13:57:12;10;9;
55485;PMS5003;71262;-25.924;28.194;2024-03-02T13:59:38;9;9;
55485;PMS5003;71262;-25.924;28.194;2024-03-02T14:02:04;7;7;
55485;PMS5003;71262;-25.924;28.194;2024-03-02T14:04:29;10;9;
55485;PMS5003;71262;-25.924;28.194;2024-03-02T14:06:55;8;7;
55485;PMS5003;71262;-25.924;28.194;2024-03-02T14:09:21;11;9;
55485;PMS5003;71262;-25.924;28.194;2024-03-02T14:11:46;9;9;
55485;PMS5003;71262;-25.924;28.194;2024-03-02T14:14:12;9;9;
55485;PMS5003;71262;-25.924;28.194;2024-03-02T14:16:39;8;8;
55485;PMS5003;71262;-25.924;28.194;2024-03-02T14:19:03;7;7;
55485;PMS5003;71262;-25.924;28.194;2024-03-02T14:21:29;10;9;
55485;PMS5003;71262;-25.924;28.194;2024-03-02T14:23:55;7;7;
55485;PMS5003;71262;-25.924;28.194;2024-03-02T14:26:20;13;9;
55485;PMS5003;71262;-25.924;28.194;2024-03-02T14:28:46;9;9;
55485;PMS5003;71262;-25.924;28.194;2024-03-02T14:31:12;6;6;
55485;PMS5003;71262;-25.924;28.194;2024-03-02T14:33:37;14;12;
55485;PMS5003;71262;-25.924;28.194;2024-03-02T14:36:03;11;9;
55485;PMS5003;71262;-25.924;28.194;2024-03-02T14:38:29;9;8;
55485;PMS5003;71262;-25.924;28.194;2024-03-02T14:40:54;11;9;
55485;PMS5003;71262;-25.924;28.194;2024-03-02T14:43:20;11;10;
55485;PMS5003;71262;-25.924;28.194;2024-03-02T14:45:45;13;10;
55485;PMS5003;71262;-25.924;28.194;2024-03-02T14:48:11;11;10;
55485;PMS5003;71262;-25.924;28.194;2024-03-02T14:50:37;9;9;
55485;PMS5003;71262;-25.924;28.194;2024-03-02T14:53:03;10;9;
55485;PMS5003;71262;-25.924;28.194;2024-03-02T14:55:28;10;10;
55485;PMS5003;71262;-25.924;28.194;2024-03-02T14:57:54;9;8;
55485;PMS5003;71262;-25.924;28.194;2024-03-02T15:00:20;10;9;
55485;PMS5003;71262;-25.924;28.194;2024-03-02T15:02:45;12;12;
55485;PMS5003;71262;-25.924;28.194;2024-03-02T15:05:11;9;8;
55485;PMS5003;71262;-25.924;28.194;2024-03-02T15:07:37;8;7;
55485;PMS5003;71262;-25.924;28.194;2024-03-02T15:10:03;11;11;
55485;PMS5003;71262;-25.924;28.194;2024-03-02T15:12:29;8;8;
55485;PMS5003;71262;-25.924;28.194;2024-03-02T15:14:54;12;10;
55485;PMS5003;71262;-25.924;28.194;2024-03-02T15:17:20;9;9;
55485;PMS5003;71262;-25.924;28.194;2024-03-02T15:19:46;9;9;
55485;PMS5003;71262;-25.924;28.194;2024-03-02T15:22:12;10;10;
55485;PMS5003;71262;-25.924;28.194;2024-03-02T15:24:37;10;10;
55485;PMS5003;71262;-25.924;28.194;2024-03-02T15:27:03;11;11;
55485;PMS5003;71262;-25.924;28.194;2024-03-02T15:29:29;11;11;
55485;PMS5003;71262;-25.924;28.194;2024-03-02T15:31:54;13;11;
55485;PMS5003;71262;-25.924;28.194;2024-03-02T15:34:20;11;11;
55485;PMS5003;71262;-25.924;28.194;2024-03-02T15:36:46;8;8;
55485;PMS5003;71262;-25.924;28.194;2024-03-02T15:39:11;11;11;
55485;PMS5003;71262;-25.924;28.194;2024-03-02T15:41:37;8;8;
55485;PMS5003;71262;-25.924;28.194;2024-03-02T15:44:03;12;10;
55485;PMS5003;71262;-25.924;28.194;2024-03-02T15:46:29;9;8;
55485;PMS5003;71262;-25.924;28.194;2024-03-02T15:48:54;13;12;
55485;PMS5003;71262;-25.924;28.194;2024-03-02T15:51:20;9;9;
55485;PMS5003;71262;-25.924;28.194;2024-03-02T15:53:46;14;13;
55485;PMS5003;71262;-25.924;28.194;2024-03-02T15:56:11;12;11;
55485;PMS5003;71262;-25.924;28.194;2024-03-02T15:58:37;13;11;
55485;PMS5003;71262;-25.924;28.194;2024-03-02T16:01:03;14;11;
55485;PMS5003;71262;-25.924;28.194;2024-03-02T16:03:29;12;9;
55485;PMS5003;71262;-25.924;28.194;2024-03-02T16:05:54;14;11;